Hlavní strana
METAR-TAF:

METAR-TAF

Letiště :

Letiště Skopje

Skopje, Makedonie

zeměpisná šířka: 41-58N, zeměpisná délka: 021-39E, výška: 238 m

Aktuální stav počasí

Zpráva byla vytvořena před 40 minutami, v 04:30 UTC
vítr z různých směrů 1 kt
Teplota -7°C
Vlhkost vzduchu 86%
Tlak 1044 hPa
Viditelnost 10 km a více
Žádná oblačnost pod 1500 m, nevyskytují se cumulonimby.

METAR: LWSK 210430Z VRB01KT CAVOK M07/M09 Q1044 NOSIG

Čas: 06:10 (05:10 UTC)

Předpověď počasí

Zpráva byla vytvořena před 2 hodinami a 40 minutami, v 02:30 UTC
Předpověď platná od 21 v 03 UTC do 22 v 03 UTC
vítr z různých směrů 2 kt
Viditelnost 10 km a více
Žádná oblačnost pod 1500 m, nevyskytují se cumulonimby.
Dočasný
od 21 v 08 UTC do 21 v 16 UTC
Severoseverovýchodní vítr 10 kt

TAF: LWSK 210230Z 2103/2203 VRB02KT CAVOK TEMPO 2108/2116 03010KT

Stav a předpovědi počasí z více než 4 000 letišť (zprávy METAR a TAF).

Červené a žluté tečky na mapě představují dostupné meteorologické stanice.

Když kurzor umístíte na tečku, zobrazí se název stanice.

Pak kliknutím zobrazíte stav a předpověď počasí.

Chcete-li změnit mapu, kliknutím na zelené tlačítko se znaménkem +mapu přiblížíte, kliknutím na zelené tlačítko se znaménkem – mapu oddálíte a kliknutím na zelené šipky přejdete na sousední mapy.


METAR-TAF: